createdAt,value
2023-12-15T00:02:24.811Z,15.30
2023-12-15T00:05:30.910Z,13.48
2023-12-15T00:08:43.894Z,9.10
2023-12-15T00:11:45.585Z,11.85
2023-12-15T00:14:56.748Z,16.52
2023-12-15T00:18:05.008Z,13.63
2023-12-15T00:21:13.764Z,9.57
2023-12-15T00:24:23.831Z,14.50
2023-12-15T00:27:32.806Z,10.10
2023-12-15T00:30:40.817Z,10.60
2023-12-15T00:33:47.870Z,10.02
2023-12-15T00:36:53.817Z,11.60
2023-12-15T00:40:00.805Z,9.98
2023-12-15T00:43:01.849Z,10.52
2023-12-15T00:46:02.966Z,8.50
2023-12-15T00:49:16.774Z,9.88
2023-12-15T00:52:25.787Z,10.20
2023-12-15T00:55:33.804Z,11.52
2023-12-15T00:58:42.792Z,10.23
2023-12-15T01:01:49.875Z,10.95
2023-12-15T01:04:57.889Z,11.30
2023-12-15T01:08:03.873Z,9.07
2023-12-15T01:11:10.832Z,12.00
2023-12-15T01:14:17.899Z,8.82
2023-12-15T01:17:24.832Z,8.18
2023-12-15T01:20:24.778Z,8.00
2023-12-15T01:23:26.870Z,10.15
2023-12-15T01:26:36.143Z,8.50
2023-12-15T01:29:44.852Z,10.35
2023-12-15T01:32:50.931Z,11.07
2023-12-15T01:36:05.264Z,8.82
2023-12-15T01:39:12.805Z,7.88
2023-12-15T01:42:21.898Z,9.93
2023-12-15T01:45:28.830Z,9.18
2023-12-15T01:48:34.927Z,8.50
2023-12-15T01:51:41.846Z,11.50
2023-12-15T01:54:49.848Z,10.00
2023-12-15T01:57:58.856Z,9.00
2023-12-15T02:01:06.005Z,10.15
2023-12-15T02:04:12.932Z,8.45
2023-12-15T02:07:19.845Z,10.05
2023-12-15T02:10:27.767Z,11.20
2023-12-15T02:13:38.847Z,12.75
2023-12-15T02:16:46.895Z,10.70
2023-12-15T02:19:54.373Z,10.80
2023-12-15T02:23:07.239Z,9.95
2023-12-15T02:26:14.954Z,7.57
2023-12-15T02:29:23.919Z,10.50
2023-12-15T02:32:30.916Z,9.32
2023-12-15T02:35:37.880Z,12.63
2023-12-15T02:38:48.030Z,13.63
2023-12-15T02:41:57.894Z,7.75
2023-12-15T02:45:05.870Z,11.48
2023-12-15T02:48:15.053Z,11.02
2023-12-15T02:51:21.882Z,15.65
2023-12-15T02:54:31.212Z,11.05
2023-12-15T02:57:42.894Z,12.23
2023-12-15T03:00:49.958Z,11.93
2023-12-15T03:03:59.267Z,10.52
2023-12-15T03:07:05.879Z,10.25
2023-12-15T03:10:14.906Z,12.40
2023-12-15T03:13:20.937Z,9.45
2023-12-15T03:16:30.105Z,11.90
2023-12-15T03:19:38.089Z,9.95
2023-12-15T03:22:44.893Z,13.25
2023-12-15T03:25:51.940Z,10.75
2023-12-15T03:29:00.304Z,12.40
2023-12-15T03:32:07.945Z,11.15
2023-12-15T03:35:14.909Z,11.15
2023-12-15T03:38:24.844Z,8.15
2023-12-15T03:41:36.163Z,12.20
2023-12-15T03:44:46.020Z,12.02
2023-12-15T03:47:53.048Z,14.93
2023-12-15T03:50:59.943Z,10.57
2023-12-15T03:54:06.933Z,12.55
2023-12-15T03:57:19.962Z,9.98
2023-12-15T04:00:32.397Z,8.18
2023-12-15T04:03:47.855Z,9.25
2023-12-15T04:06:57.941Z,11.18
2023-12-15T04:10:04.962Z,8.43
2023-12-15T04:13:12.934Z,10.48
2023-12-15T04:16:28.937Z,13.68
2023-12-15T04:19:35.108Z,13.05
2023-12-15T04:22:48.963Z,10.90
2023-12-15T04:25:55.017Z,14.43
2023-12-15T04:29:03.017Z,9.88
2023-12-15T04:32:08.976Z,14.23
2023-12-15T04:35:19.000Z,10.77
2023-12-15T04:38:25.996Z,9.50
2023-12-15T04:41:36.955Z,12.30
2023-12-15T04:44:43.963Z,8.57
2023-12-15T04:47:51.140Z,11.02
2023-12-15T04:50:58.957Z,12.02
2023-12-15T04:54:04.953Z,9.07
2023-12-15T04:57:11.967Z,9.93
2023-12-15T05:00:21.099Z,8.75
2023-12-15T05:03:31.030Z,10.35
2023-12-15T05:06:40.004Z,13.60
2023-12-15T05:09:48.064Z,12.98
2023-12-15T05:12:53.970Z,9.43
2023-12-15T05:16:02.149Z,11.57
2023-12-15T05:19:10.026Z,10.30
2023-12-15T05:22:18.597Z,11.60
2023-12-15T05:25:25.972Z,11.07
2023-12-15T05:28:33.016Z,9.45
2023-12-15T05:31:45.119Z,8.70
2023-12-15T05:34:45.170Z,11.77
2023-12-15T05:37:48.005Z,12.20
2023-12-15T05:40:54.993Z,12.77
2023-12-15T05:44:02.197Z,11.43
2023-12-15T05:47:11.095Z,11.32
2023-12-15T05:50:19.227Z,12.48
2023-12-15T05:53:35.394Z,12.20
2023-12-15T05:56:45.041Z,12.63
2023-12-15T05:59:52.003Z,12.45
2023-12-15T06:03:04.912Z,12.45
2023-12-15T06:06:12.564Z,12.23
2023-12-15T06:09:20.044Z,9.95
2023-12-15T06:12:26.010Z,11.82
2023-12-15T06:15:32.042Z,13.95
2023-12-15T06:18:35.885Z,11.38
2023-12-15T06:21:37.771Z,10.20
2023-12-15T06:24:48.816Z,12.60
2023-12-15T06:27:57.814Z,15.27
2023-12-15T06:31:03.983Z,14.35
2023-12-15T06:34:15.908Z,11.68
2023-12-15T06:37:21.904Z,16.17
2023-12-15T06:40:27.845Z,12.73
2023-12-15T06:43:33.828Z,13.30
2023-12-15T06:46:43.845Z,12.45
2023-12-15T06:49:51.841Z,9.88
2023-12-15T06:53:02.853Z,16.70
2023-12-15T06:56:12.526Z,13.20
2023-12-15T06:59:20.941Z,11.68
2023-12-15T07:02:26.927Z,14.75
2023-12-15T07:05:38.897Z,10.85
2023-12-15T07:08:47.856Z,13.57
2023-12-15T07:11:48.876Z,15.20
2023-12-15T07:14:58.531Z,18.80
2023-12-15T07:18:05.949Z,18.02
2023-12-15T07:21:12.919Z,14.50
2023-12-15T07:24:12.706Z,15.63
2023-12-15T07:27:13.874Z,17.90
2023-12-15T07:30:21.055Z,15.77
2023-12-15T07:33:27.934Z,12.20
2023-12-15T07:36:38.964Z,12.65
2023-12-15T07:39:45.875Z,18.02
2023-12-15T07:42:51.891Z,15.50
2023-12-15T07:46:03.900Z,17.98
2023-12-15T07:49:11.001Z,18.60
2023-12-15T07:52:20.996Z,12.02
2023-12-15T07:55:28.883Z,12.40
2023-12-15T07:58:34.882Z,16.33
2023-12-15T08:01:41.930Z,16.08
2023-12-15T08:04:42.863Z,12.95
2023-12-15T08:07:45.911Z,16.08
2023-12-15T08:10:53.884Z,17.90
2023-12-15T08:14:02.074Z,14.02
2023-12-15T08:17:11.931Z,19.40
2023-12-15T08:20:18.004Z,17.00
2023-12-15T08:23:27.183Z,12.88
2023-12-15T08:26:40.036Z,15.45
2023-12-15T08:29:45.975Z,18.15
2023-12-15T08:32:54.264Z,11.18
2023-12-15T08:36:01.002Z,12.43
2023-12-15T08:39:10.638Z,14.57
2023-12-15T08:42:21.960Z,16.25
2023-12-15T08:45:27.967Z,16.70
2023-12-15T08:48:34.995Z,15.32
2023-12-15T08:51:41.961Z,21.85
2023-12-15T08:54:50.921Z,15.50
2023-12-15T08:57:58.951Z,18.38
2023-12-15T09:01:07.100Z,14.80
2023-12-15T09:04:13.995Z,19.23
2023-12-15T09:07:21.007Z,19.17
2023-12-15T09:10:29.945Z,19.45
2023-12-15T09:13:36.948Z,17.40
2023-12-15T09:16:43.997Z,16.77
2023-12-15T09:19:52.096Z,17.13
2023-12-15T09:22:57.983Z,15.77
2023-12-15T09:26:08.045Z,18.77
2023-12-15T09:29:15.002Z,18.13
2023-12-15T09:32:20.989Z,15.85
2023-12-15T09:35:29.176Z,18.23
2023-12-15T09:38:37.064Z,17.70
2023-12-15T09:41:46.043Z,16.83
2023-12-15T09:45:00.920Z,17.95
2023-12-15T09:48:13.997Z,17.75
2023-12-15T09:51:23.967Z,15.82
2023-12-15T09:54:30.983Z,13.73
2023-12-15T09:57:38.988Z,18.58
2023-12-15T10:00:45.964Z,18.75
2023-12-15T10:03:52.094Z,18.08
2023-12-15T10:06:59.006Z,14.93
2023-12-15T10:10:06.986Z,15.48
2023-12-15T10:13:17.068Z,15.77
2023-12-15T10:16:24.126Z,17.60
2023-12-15T10:19:23.872Z,17.42
2023-12-15T10:22:22.977Z,17.63
2023-12-15T10:25:35.047Z,16.75
2023-12-15T10:28:44.995Z,16.52
2023-12-15T10:31:52.121Z,18.58
2023-12-15T10:34:58.994Z,19.35
2023-12-15T10:38:06.044Z,21.30
2023-12-15T10:41:14.013Z,19.52
2023-12-15T10:44:22.211Z,14.07
2023-12-15T10:47:31.216Z,14.68
2023-12-15T10:50:38.028Z,18.92
2023-12-15T10:53:44.039Z,17.98
2023-12-15T10:56:52.120Z,18.08
2023-12-15T11:00:00.035Z,20.08
2023-12-15T11:03:08.073Z,17.17
2023-12-15T11:06:14.122Z,15.27
2023-12-15T11:09:21.084Z,17.75
2023-12-15T11:12:40.442Z,18.75
2023-12-15T11:15:49.035Z,15.65
2023-12-15T11:18:57.187Z,20.67
2023-12-15T11:22:06.013Z,18.90
2023-12-15T11:25:16.033Z,16.20
2023-12-15T11:28:27.043Z,21.00
2023-12-15T11:31:45.019Z,15.68
2023-12-15T11:34:57.038Z,15.93
2023-12-15T11:38:03.182Z,17.80
2023-12-15T11:41:04.753Z,13.27
2023-12-15T11:44:06.126Z,16.52
2023-12-15T11:47:16.081Z,15.23
2023-12-15T11:50:25.150Z,16.48
2023-12-15T11:53:31.087Z,19.10
2023-12-15T11:56:38.068Z,12.63
2023-12-15T11:59:46.080Z,16.35
2023-12-15T12:03:05.715Z,14.30
2023-12-15T12:06:14.080Z,14.05
2023-12-15T12:09:22.135Z,16.63
2023-12-15T12:12:28.042Z,18.77
2023-12-15T12:15:35.049Z,14.57
2023-12-15T12:18:43.110Z,18.85
2023-12-15T12:21:50.088Z,18.42
2023-12-15T12:24:56.098Z,21.63
2023-12-15T12:28:08.153Z,19.20
2023-12-15T12:31:15.084Z,18.25
2023-12-15T12:34:24.225Z,19.95
2023-12-15T12:37:35.110Z,17.48
2023-12-15T12:40:42.183Z,14.13
2023-12-15T12:43:42.560Z,17.35
2023-12-15T12:46:43.094Z,18.23
2023-12-15T12:49:52.995Z,19.55
2023-12-15T12:53:05.121Z,17.85
2023-12-15T12:56:14.212Z,16.63
2023-12-15T12:59:24.131Z,11.55
2023-12-15T13:02:33.236Z,13.73
2023-12-15T13:05:45.207Z,13.75
2023-12-15T13:08:53.189Z,18.85
2023-12-15T13:12:00.117Z,20.17
2023-12-15T13:15:07.123Z,17.63
2023-12-15T13:18:14.331Z,12.80
2023-12-15T13:21:25.207Z,11.82
2023-12-15T13:24:38.415Z,14.38
2023-12-15T13:27:50.233Z,20.98
2023-12-15T13:30:58.206Z,16.80
2023-12-15T13:34:06.199Z,12.70
2023-12-15T13:37:17.232Z,16.27
2023-12-15T13:40:27.121Z,17.90
2023-12-15T13:43:33.136Z,17.60
2023-12-15T13:46:33.994Z,16.98
2023-12-15T13:49:34.201Z,16.02
2023-12-15T13:52:47.132Z,16.67
2023-12-15T13:55:57.058Z,17.13
2023-12-15T13:58:57.809Z,9.98
2023-12-15T14:01:59.130Z,17.73
2023-12-15T14:05:08.122Z,14.38
2023-12-15T14:08:20.185Z,15.45
2023-12-15T14:11:29.481Z,14.73
2023-12-15T14:14:36.201Z,16.85
2023-12-15T14:17:45.393Z,14.32
2023-12-15T14:20:52.172Z,18.52
2023-12-15T14:24:03.328Z,18.90
2023-12-15T14:27:13.301Z,18.10
2023-12-15T14:30:20.205Z,15.15
2023-12-15T14:33:26.262Z,16.38
2023-12-15T14:36:34.191Z,13.18
2023-12-15T14:39:35.664Z,16.58
2023-12-15T14:42:36.432Z,17.20
2023-12-15T14:45:47.167Z,18.10
2023-12-15T14:48:54.363Z,13.25
2023-12-15T14:52:02.232Z,18.48
2023-12-15T14:55:09.147Z,13.02
2023-12-15T14:58:18.178Z,13.00
2023-12-15T15:01:25.164Z,21.27
2023-12-15T15:04:33.181Z,14.50
2023-12-15T15:07:45.220Z,13.55
2023-12-15T15:10:56.204Z,15.93
2023-12-15T15:14:05.052Z,15.45
2023-12-15T15:17:14.233Z,14.77
2023-12-15T15:20:21.365Z,14.43
2023-12-15T15:23:29.280Z,18.60
2023-12-15T15:26:39.269Z,23.13
2023-12-15T15:29:45.366Z,23.50
2023-12-15T15:32:52.244Z,19.50
2023-12-15T15:36:00.266Z,21.20
2023-12-15T15:39:06.318Z,25.75
2023-12-15T15:42:16.952Z,25.08
2023-12-15T15:45:23.219Z,22.08
2023-12-15T15:48:29.272Z,23.15
2023-12-15T15:51:40.234Z,20.35
2023-12-15T15:54:52.355Z,24.33
2023-12-15T15:58:00.299Z,25.55
2023-12-15T16:01:07.331Z,24.77
2023-12-15T16:04:13.440Z,24.20
2023-12-15T16:07:23.197Z,23.13
2023-12-15T16:10:44.066Z,25.52
2023-12-15T16:14:04.886Z,19.90
2023-12-15T16:17:17.224Z,23.85
2023-12-15T16:20:23.218Z,22.27
2023-12-15T16:23:29.224Z,21.33
2023-12-15T16:26:37.210Z,22.40
2023-12-15T16:29:46.232Z,20.70
2023-12-15T16:32:54.294Z,19.60
2023-12-15T16:36:01.240Z,20.15
2023-12-15T16:39:07.225Z,21.02
2023-12-15T16:42:13.256Z,21.35
2023-12-15T16:45:24.261Z,22.25
2023-12-15T16:48:31.264Z,18.80
2023-12-15T16:51:39.285Z,22.05
2023-12-15T16:54:47.306Z,19.25
2023-12-15T16:57:53.323Z,20.90
2023-12-15T17:01:03.307Z,20.42
2023-12-15T17:04:15.332Z,22.17
2023-12-15T17:07:21.410Z,18.88
2023-12-15T17:10:32.259Z,19.75
2023-12-15T17:13:35.456Z,22.23
2023-12-15T17:16:47.699Z,21.77
2023-12-15T17:19:56.763Z,20.40
2023-12-15T17:23:05.569Z,26.42
2023-12-15T17:26:12.689Z,24.52
2023-12-15T17:29:20.649Z,26.65
2023-12-15T17:32:32.993Z,25.15
2023-12-15T17:35:41.574Z,19.15
2023-12-15T17:38:48.542Z,23.42
2023-12-15T17:41:57.547Z,22.50
2023-12-15T17:45:05.563Z,22.63
2023-12-15T17:48:18.697Z,20.10
2023-12-15T17:51:25.574Z,24.08
2023-12-15T17:54:31.543Z,15.95
2023-12-15T17:57:38.877Z,20.35
2023-12-15T18:00:47.599Z,15.60
2023-12-15T18:03:56.626Z,18.23
2023-12-15T18:07:03.592Z,21.15
2023-12-15T18:10:10.575Z,16.60
2023-12-15T18:13:17.598Z,20.42
2023-12-15T18:16:24.502Z,15.52
2023-12-15T18:19:34.605Z,20.08
2023-12-15T18:22:43.690Z,18.15
2023-12-15T18:25:54.503Z,20.35
2023-12-15T18:29:01.608Z,17.52
2023-12-15T18:32:10.565Z,18.33
2023-12-15T18:35:18.595Z,22.83
2023-12-15T18:38:25.575Z,20.60
2023-12-15T18:41:34.591Z,21.83
2023-12-15T18:44:44.613Z,16.90
2023-12-15T18:47:59.756Z,24.80
2023-12-15T18:51:10.552Z,19.33
2023-12-15T18:54:22.609Z,21.33
2023-12-15T18:57:34.691Z,19.20
2023-12-15T19:00:44.777Z,18.08
2023-12-15T19:03:54.712Z,19.05
2023-12-15T19:07:01.643Z,20.88
2023-12-15T19:10:08.685Z,19.17
2023-12-15T19:13:15.631Z,12.60
2023-12-15T19:16:23.864Z,19.15
2023-12-15T19:19:31.701Z,17.55
2023-12-15T19:22:42.643Z,18.02
2023-12-15T19:25:50.633Z,16.90
2023-12-15T19:28:56.610Z,18.30
2023-12-15T19:32:03.609Z,18.60
2023-12-15T19:35:09.956Z,17.50
2023-12-15T19:38:19.616Z,19.20
2023-12-15T19:41:32.652Z,16.75
2023-12-15T19:44:38.615Z,15.40
2023-12-15T19:47:47.634Z,15.85
2023-12-15T19:50:57.626Z,16.05
2023-12-15T19:54:16.311Z,19.48
2023-12-15T19:57:30.653Z,19.70
2023-12-15T20:00:39.710Z,12.13
2023-12-15T20:03:47.737Z,15.40
2023-12-15T20:06:55.744Z,17.13
2023-12-15T20:10:04.729Z,15.68
2023-12-15T20:13:10.782Z,15.65
2023-12-15T20:16:23.096Z,19.15
2023-12-15T20:19:29.774Z,15.80
2023-12-15T20:22:36.637Z,17.30
2023-12-15T20:25:43.805Z,18.25
2023-12-15T20:28:50.681Z,13.85
2023-12-15T20:31:52.607Z,20.20
2023-12-15T20:34:52.807Z,19.38
2023-12-15T20:38:05.612Z,17.48
2023-12-15T20:41:19.665Z,18.15
2023-12-15T20:44:27.711Z,15.88
2023-12-15T20:47:37.560Z,15.38
2023-12-15T20:50:45.689Z,18.25
2023-12-15T20:53:52.777Z,14.65
2023-12-15T20:57:02.728Z,19.58
2023-12-15T21:00:09.688Z,18.75
2023-12-15T21:03:18.324Z,18.95
2023-12-15T21:06:25.748Z,17.17
2023-12-15T21:09:33.747Z,16.23
2023-12-15T21:12:41.971Z,14.98
2023-12-15T21:15:49.747Z,16.33
2023-12-15T21:18:57.310Z,12.90
2023-12-15T21:22:07.759Z,14.38
2023-12-15T21:25:14.719Z,18.45
2023-12-15T21:28:25.750Z,15.50
2023-12-15T21:31:32.818Z,17.92
2023-12-15T21:34:40.725Z,18.98
2023-12-15T21:37:47.751Z,14.68
2023-12-15T21:40:55.710Z,13.77
2023-12-15T21:44:04.742Z,13.90
2023-12-15T21:47:11.714Z,11.70
2023-12-15T21:50:22.742Z,12.32
2023-12-15T21:53:31.373Z,12.07
2023-12-15T21:56:37.765Z,11.45
2023-12-15T21:59:44.747Z,9.63
2023-12-15T22:02:50.737Z,15.32
2023-12-15T22:05:56.776Z,12.50
2023-12-15T22:09:06.772Z,10.55
2023-12-15T22:12:14.751Z,10.25
2023-12-15T22:15:24.910Z,12.77
2023-12-15T22:18:34.856Z,11.27
2023-12-15T22:21:41.769Z,12.35
2023-12-15T22:24:47.804Z,12.27
2023-12-15T22:27:55.737Z,13.70
2023-12-15T22:31:05.872Z,14.13
2023-12-15T22:34:13.932Z,10.80
2023-12-15T22:37:20.795Z,12.32
2023-12-15T22:40:20.594Z,9.70
2023-12-15T22:43:21.849Z,14.38
2023-12-15T22:46:34.787Z,8.20
2023-12-15T22:49:44.944Z,10.65
2023-12-15T22:52:52.780Z,11.90
2023-12-15T22:56:04.840Z,8.38
2023-12-15T22:59:15.387Z,12.15
2023-12-15T23:02:23.787Z,10.55
2023-12-15T23:05:29.790Z,13.73
2023-12-15T23:08:36.800Z,12.40
2023-12-15T23:11:42.761Z,9.77
2023-12-15T23:14:50.008Z,7.53
2023-12-15T23:18:02.404Z,9.23
2023-12-15T23:21:19.606Z,10.07
2023-12-15T23:24:34.776Z,7.97
2023-12-15T23:27:43.182Z,6.82
2023-12-15T23:30:51.110Z,11.38
2023-12-15T23:33:59.869Z,7.95
2023-12-15T23:37:12.815Z,6.60
2023-12-15T23:40:19.844Z,11.90
2023-12-15T23:43:26.836Z,8.50
2023-12-15T23:46:33.797Z,7.10
2023-12-15T23:49:46.158Z,6.10
2023-12-15T23:52:54.923Z,5.30
2023-12-15T23:56:03.869Z,6.95
2023-12-15T23:59:10.813Z,5.03
